Terminal Aerodrome Forecast
Issued by NWS

Home | Current Version | Previous Version | Graphics & Text | Print | Product List | Glossary On
Versions: 1 2 3 4 5 6 7 8 9 10 11 12 13
000
FTUS41 KCLE 211140
TAFFDY
TAF
KFDY 211140Z 2112/2212 27010KT P6SM OVC035
     FM211400 28012G20KT P6SM OVC025
     FM211800 29012G22KT P6SM BKN035
     FM212300 33010KT P6SM BKN035
     FM220500 01010KT P6SM BKN030=

USA.gov is the U.S. government's official web portal to all federal, state and local government web resources and services.